sensor_id;sensor_type;location;lat;lon;timestamp;temperature;humidity
42261;DHT22;27926;48.062;7.474;2023-04-01T00:00:26;8.50;99.90
42261;DHT22;27926;48.062;7.474;2023-04-01T00:02:51;8.10;99.90
42261;DHT22;27926;48.062;7.474;2023-04-01T00:05:16;8.10;99.90
42261;DHT22;27926;48.062;7.474;2023-04-01T00:07:43;7.90;99.90
42261;DHT22;27926;48.062;7.474;2023-04-01T00:10:10;7.80;99.90
42261;DHT22;27926;48.062;7.474;2023-04-01T00:12:35;7.70;99.90
42261;DHT22;27926;48.062;7.474;2023-04-01T00:15:00;7.70;99.90
42261;DHT22;27926;48.062;7.474;2023-04-01T00:17:25;7.80;99.90
42261;DHT22;27926;48.062;7.474;2023-04-01T00:19:50;7.70;99.90
42261;DHT22;27926;48.062;7.474;2023-04-01T00:22:15;8.40;99.90
42261;DHT22;27926;48.062;7.474;2023-04-01T00:24:39;7.70;99.90
42261;DHT22;27926;48.062;7.474;2023-04-01T00:27:04;7.80;99.90
42261;DHT22;27926;48.062;7.474;2023-04-01T00:29:29;7.80;99.90
42261;DHT22;27926;48.062;7.474;2023-04-01T00:31:55;7.90;99.90
42261;DHT22;27926;48.062;7.474;2023-04-01T00:34:20;7.90;99.90
42261;DHT22;27926;48.062;7.474;2023-04-01T00:36:45;8.10;99.90
42261;DHT22;27926;48.062;7.474;2023-04-01T00:39:10;8.00;99.90
42261;DHT22;27926;48.062;7.474;2023-04-01T00:41:34;8.70;99.90
42261;DHT22;27926;48.062;7.474;2023-04-01T00:44:20;8.70;99.90
42261;DHT22;27926;48.062;7.474;2023-04-01T00:46:45;8.10;99.90
42261;DHT22;27926;48.062;7.474;2023-04-01T00:49:09;8.10;99.90
42261;DHT22;27926;48.062;7.474;2023-04-01T00:51:34;8.10;99.90
42261;DHT22;27926;48.062;7.474;2023-04-01T00:54:00;8.10;99.90
42261;DHT22;27926;48.062;7.474;2023-04-01T00:56:37;8.10;99.90
42261;DHT22;27926;48.062;7.474;2023-04-01T00:59:06;8.10;99.90
42261;DHT22;27926;48.062;7.474;2023-04-01T01:01:33;8.10;99.90
42261;DHT22;27926;48.062;7.474;2023-04-01T01:03:59;8.10;99.90
42261;DHT22;27926;48.062;7.474;2023-04-01T01:06:33;8.10;99.90
42261;DHT22;27926;48.062;7.474;2023-04-01T01:26:05;8.10;99.90
42261;DHT22;27926;48.062;7.474;2023-04-01T01:36:33;8.10;99.90
42261;DHT22;27926;48.062;7.474;2023-04-01T01:39:03;8.00;99.90
42261;DHT22;27926;48.062;7.474;2023-04-01T01:41:30;8.00;99.90
42261;DHT22;27926;48.062;7.474;2023-04-01T01:43:56;8.00;99.90
42261;DHT22;27926;48.062;7.474;2023-04-01T01:46:24;8.00;99.90
42261;DHT22;27926;48.062;7.474;2023-04-01T01:48:49;8.00;99.90
42261;DHT22;27926;48.062;7.474;2023-04-01T01:51:15;8.00;99.90
42261;DHT22;27926;48.062;7.474;2023-04-01T01:53:40;8.30;99.90
42261;DHT22;27926;48.062;7.474;2023-04-01T01:56:05;8.20;99.90
42261;DHT22;27926;48.062;7.474;2023-04-01T01:58:31;8.20;99.90
42261;DHT22;27926;48.062;7.474;2023-04-01T02:00:59;8.30;99.90
42261;DHT22;27926;48.062;7.474;2023-04-01T02:03:27;8.30;99.90
42261;DHT22;27926;48.062;7.474;2023-04-01T02:05:56;8.30;99.90
42261;DHT22;27926;48.062;7.474;2023-04-01T02:08:26;8.50;99.90
42261;DHT22;27926;48.062;7.474;2023-04-01T02:11:02;8.60;99.90
42261;DHT22;27926;48.062;7.474;2023-04-01T02:13:34;8.40;99.90
42261;DHT22;27926;48.062;7.474;2023-04-01T02:16:03;8.50;99.90
42261;DHT22;27926;48.062;7.474;2023-04-01T02:18:33;8.50;99.90
42261;DHT22;27926;48.062;7.474;2023-04-01T02:20:59;8.50;99.90
42261;DHT22;27926;48.062;7.474;2023-04-01T02:23:25;8.50;99.90
42261;DHT22;27926;48.062;7.474;2023-04-01T02:25:50;8.60;99.90
42261;DHT22;27926;48.062;7.474;2023-04-01T02:28:16;8.60;99.90
42261;DHT22;27926;48.062;7.474;2023-04-01T02:30:44;8.50;99.90
42261;DHT22;27926;48.062;7.474;2023-04-01T02:33:09;8.50;99.90
42261;DHT22;27926;48.062;7.474;2023-04-01T02:35:36;8.50;99.90
42261;DHT22;27926;48.062;7.474;2023-04-01T02:38:01;8.40;99.90
42261;DHT22;27926;48.062;7.474;2023-04-01T02:40:27;8.40;99.90
42261;DHT22;27926;48.062;7.474;2023-04-01T02:42:53;8.30;99.90
42261;DHT22;27926;48.062;7.474;2023-04-01T02:45:17;8.30;99.90
42261;DHT22;27926;48.062;7.474;2023-04-01T02:47:42;8.30;99.90
42261;DHT22;27926;48.062;7.474;2023-04-01T02:50:07;8.50;99.90
42261;DHT22;27926;48.062;7.474;2023-04-01T02:52:32;8.30;99.90
42261;DHT22;27926;48.062;7.474;2023-04-01T02:54:58;8.30;99.90
42261;DHT22;27926;48.062;7.474;2023-04-01T02:57:23;8.30;99.90
42261;DHT22;27926;48.062;7.474;2023-04-01T02:59:48;8.30;99.90
42261;DHT22;27926;48.062;7.474;2023-04-01T03:02:13;8.30;99.90
42261;DHT22;27926;48.062;7.474;2023-04-01T03:04:38;8.20;99.90
42261;DHT22;27926;48.062;7.474;2023-04-01T03:07:02;8.10;99.90
42261;DHT22;27926;48.062;7.474;2023-04-01T03:09:27;8.30;99.90
42261;DHT22;27926;48.062;7.474;2023-04-01T03:11:52;7.90;99.90
42261;DHT22;27926;48.062;7.474;2023-04-01T03:14:17;7.80;99.90
42261;DHT22;27926;48.062;7.474;2023-04-01T03:16:42;7.90;99.90
42261;DHT22;27926;48.062;7.474;2023-04-01T03:19:06;7.60;99.90
42261;DHT22;27926;48.062;7.474;2023-04-01T03:21:31;7.60;99.90
42261;DHT22;27926;48.062;7.474;2023-04-01T03:23:55;7.50;99.90
42261;DHT22;27926;48.062;7.474;2023-04-01T03:26:20;7.50;99.90
42261;DHT22;27926;48.062;7.474;2023-04-01T03:28:45;7.40;99.90
42261;DHT22;27926;48.062;7.474;2023-04-01T03:31:11;8.20;99.90
42261;DHT22;27926;48.062;7.474;2023-04-01T03:33:36;7.40;99.90
42261;DHT22;27926;48.062;7.474;2023-04-01T03:36:00;7.30;99.90
42261;DHT22;27926;48.062;7.474;2023-04-01T03:38:25;7.80;99.90
42261;DHT22;27926;48.062;7.474;2023-04-01T03:40:50;7.90;99.90
42261;DHT22;27926;48.062;7.474;2023-04-01T03:43:14;7.40;99.90
42261;DHT22;27926;48.062;7.474;2023-04-01T03:45:48;7.80;99.90
42261;DHT22;27926;48.062;7.474;2023-04-01T03:48:14;7.40;99.90
42261;DHT22;27926;48.062;7.474;2023-04-01T03:50:38;7.30;99.90
42261;DHT22;27926;48.062;7.474;2023-04-01T03:53:03;8.00;99.90
42261;DHT22;27926;48.062;7.474;2023-04-01T03:55:28;7.90;99.90
42261;DHT22;27926;48.062;7.474;2023-04-01T03:57:55;7.50;99.90
42261;DHT22;27926;48.062;7.474;2023-04-01T04:00:20;7.30;99.90
42261;DHT22;27926;48.062;7.474;2023-04-01T04:02:45;7.40;99.90
42261;DHT22;27926;48.062;7.474;2023-04-01T04:05:09;7.60;99.90
42261;DHT22;27926;48.062;7.474;2023-04-01T04:07:35;8.00;99.90
42261;DHT22;27926;48.062;7.474;2023-04-01T04:09:59;7.80;99.90
42261;DHT22;27926;48.062;7.474;2023-04-01T04:12:24;7.60;99.90
42261;DHT22;27926;48.062;7.474;2023-04-01T04:14:49;7.60;99.90
42261;DHT22;27926;48.062;7.474;2023-04-01T04:17:13;8.10;99.90
42261;DHT22;27926;48.062;7.474;2023-04-01T04:19:40;7.60;99.90
42261;DHT22;27926;48.062;7.474;2023-04-01T04:22:05;7.90;99.90
42261;DHT22;27926;48.062;7.474;2023-04-01T04:24:29;7.70;99.90
42261;DHT22;27926;48.062;7.474;2023-04-01T04:26:54;7.80;99.90
42261;DHT22;27926;48.062;7.474;2023-04-01T04:29:18;7.80;99.90
42261;DHT22;27926;48.062;7.474;2023-04-01T04:31:43;8.00;99.90
42261;DHT22;27926;48.062;7.474;2023-04-01T04:34:07;7.80;99.90
42261;DHT22;27926;48.062;7.474;2023-04-01T04:36:32;8.10;99.90
42261;DHT22;27926;48.062;7.474;2023-04-01T04:38:57;8.10;99.90
42261;DHT22;27926;48.062;7.474;2023-04-01T04:41:22;7.80;99.90
42261;DHT22;27926;48.062;7.474;2023-04-01T04:43:55;8.30;99.90
42261;DHT22;27926;48.062;7.474;2023-04-01T04:46:21;8.00;99.90
42261;DHT22;27926;48.062;7.474;2023-04-01T04:48:45;8.00;99.90
42261;DHT22;27926;48.062;7.474;2023-04-01T04:51:14;7.80;99.90
42261;DHT22;27926;48.062;7.474;2023-04-01T04:53:39;7.70;99.90
42261;DHT22;27926;48.062;7.474;2023-04-01T04:56:04;7.70;99.90
42261;DHT22;27926;48.062;7.474;2023-04-01T04:58:29;7.70;99.90
42261;DHT22;27926;48.062;7.474;2023-04-01T05:00:54;7.70;99.90
42261;DHT22;27926;48.062;7.474;2023-04-01T05:03:18;7.80;99.90
42261;DHT22;27926;48.062;7.474;2023-04-01T05:05:53;8.10;99.90
42261;DHT22;27926;48.062;7.474;2023-04-01T05:08:18;7.80;99.90
42261;DHT22;27926;48.062;7.474;2023-04-01T05:10:42;7.80;99.90
42261;DHT22;27926;48.062;7.474;2023-04-01T05:13:07;7.90;99.90
42261;DHT22;27926;48.062;7.474;2023-04-01T05:15:31;7.90;99.90
42261;DHT22;27926;48.062;7.474;2023-04-01T05:17:56;8.20;99.90
42261;DHT22;27926;48.062;7.474;2023-04-01T05:20:21;7.90;99.90
42261;DHT22;27926;48.062;7.474;2023-04-01T05:22:45;7.90;99.90
42261;DHT22;27926;48.062;7.474;2023-04-01T05:25:10;8.00;99.90
42261;DHT22;27926;48.062;7.474;2023-04-01T05:27:35;8.10;99.90
42261;DHT22;27926;48.062;7.474;2023-04-01T05:29:59;8.10;99.90
42261;DHT22;27926;48.062;7.474;2023-04-01T05:32:24;8.30;99.90
42261;DHT22;27926;48.062;7.474;2023-04-01T05:34:53;8.10;99.90
42261;DHT22;27926;48.062;7.474;2023-04-01T05:37:18;8.10;99.90
42261;DHT22;27926;48.062;7.474;2023-04-01T05:39:42;8.10;99.90
42261;DHT22;27926;48.062;7.474;2023-04-01T05:42:08;8.20;99.90
42261;DHT22;27926;48.062;7.474;2023-04-01T05:44:32;8.40;99.90
42261;DHT22;27926;48.062;7.474;2023-04-01T05:46:57;8.20;99.90
42261;DHT22;27926;48.062;7.474;2023-04-01T05:49:22;8.50;99.90
42261;DHT22;27926;48.062;7.474;2023-04-01T05:51:46;8.30;99.90
42261;DHT22;27926;48.062;7.474;2023-04-01T05:54:11;8.30;99.90
42261;DHT22;27926;48.062;7.474;2023-04-01T05:56:35;8.40;99.90
42261;DHT22;27926;48.062;7.474;2023-04-01T05:59:00;8.50;99.90
42261;DHT22;27926;48.062;7.474;2023-04-01T06:01:25;8.40;99.90
42261;DHT22;27926;48.062;7.474;2023-04-01T06:03:49;8.40;99.90
42261;DHT22;27926;48.062;7.474;2023-04-01T06:06:24;8.50;99.90
42261;DHT22;27926;48.062;7.474;2023-04-01T06:08:53;8.60;99.90
42261;DHT22;27926;48.062;7.474;2023-04-01T06:11:28;8.60;99.90
42261;DHT22;27926;48.062;7.474;2023-04-01T06:14:23;8.60;99.90
42261;DHT22;27926;48.062;7.474;2023-04-01T06:22:40;8.60;99.90
42261;DHT22;27926;48.062;7.474;2023-04-01T06:25:14;8.70;99.90
42261;DHT22;27926;48.062;7.474;2023-04-01T06:27:49;8.70;99.90
42261;DHT22;27926;48.062;7.474;2023-04-01T06:30:45;8.70;99.90
42261;DHT22;27926;48.062;7.474;2023-04-01T06:33:23;8.70;99.90
42261;DHT22;27926;48.062;7.474;2023-04-01T06:36:27;8.70;99.90
42261;DHT22;27926;48.062;7.474;2023-04-01T06:39:11;8.70;99.90
42261;DHT22;27926;48.062;7.474;2023-04-01T06:44:41;8.80;99.90
42261;DHT22;27926;48.062;7.474;2023-04-01T06:47:34;8.80;99.90
42261;DHT22;27926;48.062;7.474;2023-04-01T06:55:47;9.00;99.90
42261;DHT22;27926;48.062;7.474;2023-04-01T07:00:46;9.00;99.90
42261;DHT22;27926;48.062;7.474;2023-04-01T07:05:59;9.10;99.90
42261;DHT22;27926;48.062;7.474;2023-04-01T07:08:27;9.10;99.90
42261;DHT22;27926;48.062;7.474;2023-04-01T07:11:09;9.30;99.90
42261;DHT22;27926;48.062;7.474;2023-04-01T07:14:04;9.20;99.90
42261;DHT22;27926;48.062;7.474;2023-04-01T07:16:34;9.20;99.90
42261;DHT22;27926;48.062;7.474;2023-04-01T07:21:54;9.20;99.90
42261;DHT22;27926;48.062;7.474;2023-04-01T07:24:25;9.20;99.90
42261;DHT22;27926;48.062;7.474;2023-04-01T07:26:54;9.20;99.90
42261;DHT22;27926;48.062;7.474;2023-04-01T07:29:20;9.10;99.90
42261;DHT22;27926;48.062;7.474;2023-04-01T07:37:20;9.30;99.90
42261;DHT22;27926;48.062;7.474;2023-04-01T07:45:29;9.40;99.90
42261;DHT22;27926;48.062;7.474;2023-04-01T07:48:46;9.50;99.90
42261;DHT22;27926;48.062;7.474;2023-04-01T07:53:38;9.70;99.90
42261;DHT22;27926;48.062;7.474;2023-04-01T07:56:06;9.70;99.90
42261;DHT22;27926;48.062;7.474;2023-04-01T07:58:38;9.80;99.90
42261;DHT22;27926;48.062;7.474;2023-04-01T08:03:40;9.80;99.90
42261;DHT22;27926;48.062;7.474;2023-04-01T08:06:24;9.90;99.90
42261;DHT22;27926;48.062;7.474;2023-04-01T08:12:12;10.10;99.90
42261;DHT22;27926;48.062;7.474;2023-04-01T08:19:57;10.20;99.90
42261;DHT22;27926;48.062;7.474;2023-04-01T08:22:43;10.20;99.90
42261;DHT22;27926;48.062;7.474;2023-04-01T08:25:16;10.20;99.90
42261;DHT22;27926;48.062;7.474;2023-04-01T08:27:46;10.30;99.90
42261;DHT22;27926;48.062;7.474;2023-04-01T08:30:20;10.20;99.90
42261;DHT22;27926;48.062;7.474;2023-04-01T08:33:05;10.20;99.90
42261;DHT22;27926;48.062;7.474;2023-04-01T08:35:38;10.10;99.90
42261;DHT22;27926;48.062;7.474;2023-04-01T08:38:15;10.10;99.90
42261;DHT22;27926;48.062;7.474;2023-04-01T08:41:01;10.10;99.90
42261;DHT22;27926;48.062;7.474;2023-04-01T08:43:42;10.10;99.90
42261;DHT22;27926;48.062;7.474;2023-04-01T08:57:48;10.60;99.90
42261;DHT22;27926;48.062;7.474;2023-04-01T09:06:05;10.70;99.90
42261;DHT22;27926;48.062;7.474;2023-04-01T09:08:59;10.80;99.90
42261;DHT22;27926;48.062;7.474;2023-04-01T09:11:59;10.80;99.90
42261;DHT22;27926;48.062;7.474;2023-04-01T09:29:05;11.20;99.90
42261;DHT22;27926;48.062;7.474;2023-04-01T09:36:46;11.30;99.90
42261;DHT22;27926;48.062;7.474;2023-04-01T09:42:02;11.50;99.90
42261;DHT22;27926;48.062;7.474;2023-04-01T09:50:14;11.50;99.90
42261;DHT22;27926;48.062;7.474;2023-04-01T09:58:51;11.60;99.90
42261;DHT22;27926;48.062;7.474;2023-04-01T10:01:39;11.70;99.90
42261;DHT22;27926;48.062;7.474;2023-04-01T10:56:59;11.90;99.90
42261;DHT22;27926;48.062;7.474;2023-04-01T10:59:42;11.80;99.90
42261;DHT22;27926;48.062;7.474;2023-04-01T11:22:19;12.00;99.90
42261;DHT22;27926;48.062;7.474;2023-04-01T11:25:05;12.00;99.90
42261;DHT22;27926;48.062;7.474;2023-04-01T11:27:42;12.10;99.90
42261;DHT22;27926;48.062;7.474;2023-04-01T11:33:06;12.30;99.90
42261;DHT22;27926;48.062;7.474;2023-04-01T11:35:42;12.40;99.90
42261;DHT22;27926;48.062;7.474;2023-04-01T11:40:56;12.40;99.90
42261;DHT22;27926;48.062;7.474;2023-04-01T11:49:23;12.40;99.90
42261;DHT22;27926;48.062;7.474;2023-04-01T11:51:59;12.50;99.90
42261;DHT22;27926;48.062;7.474;2023-04-01T11:54:33;12.70;99.90
42261;DHT22;27926;48.062;7.474;2023-04-01T11:57:19;12.70;99.90
42261;DHT22;27926;48.062;7.474;2023-04-01T12:00:01;12.70;99.90
42261;DHT22;27926;48.062;7.474;2023-04-01T12:05:37;12.60;99.90
42261;DHT22;27926;48.062;7.474;2023-04-01T12:08:36;12.50;99.90
42261;DHT22;27926;48.062;7.474;2023-04-01T12:11:20;12.50;99.90
42261;DHT22;27926;48.062;7.474;2023-04-01T12:14:09;12.70;99.90
42261;DHT22;27926;48.062;7.474;2023-04-01T12:24:47;12.80;99.90
42261;DHT22;27926;48.062;7.474;2023-04-01T12:30:05;12.90;99.90
42261;DHT22;27926;48.062;7.474;2023-04-01T12:33:11;12.90;99.90
42261;DHT22;27926;48.062;7.474;2023-04-01T12:41:10;12.90;99.90
42261;DHT22;27926;48.062;7.474;2023-04-01T12:46:47;12.90;99.90
42261;DHT22;27926;48.062;7.474;2023-04-01T12:55:15;12.80;99.90
42261;DHT22;27926;48.062;7.474;2023-04-01T13:00:30;12.90;99.90
42261;DHT22;27926;48.062;7.474;2023-04-01T13:22:54;13.10;99.90
42261;DHT22;27926;48.062;7.474;2023-04-01T13:25:26;13.00;99.90
42261;DHT22;27926;48.062;7.474;2023-04-01T13:36:22;12.60;99.90
42261;DHT22;27926;48.062;7.474;2023-04-01T13:41:42;12.50;99.90
42261;DHT22;27926;48.062;7.474;2023-04-01T13:44:20;12.40;99.90
42261;DHT22;27926;48.062;7.474;2023-04-01T13:47:17;12.30;99.90
42261;DHT22;27926;48.062;7.474;2023-04-01T13:52:58;12.30;99.90
42261;DHT22;27926;48.062;7.474;2023-04-01T13:58:36;12.40;99.90
42261;DHT22;27926;48.062;7.474;2023-04-01T14:03:48;12.90;99.90
42261;DHT22;27926;48.062;7.474;2023-04-01T14:26:15;14.00;99.90
42261;DHT22;27926;48.062;7.474;2023-04-01T14:29:20;14.20;99.90
42261;DHT22;27926;48.062;7.474;2023-04-01T14:50:53;13.80;99.90
42261;DHT22;27926;48.062;7.474;2023-04-01T14:53:29;13.80;99.90
42261;DHT22;27926;48.062;7.474;2023-04-01T14:55:59;13.90;99.90
42261;DHT22;27926;48.062;7.474;2023-04-01T14:58:39;14.00;99.90
42261;DHT22;27926;48.062;7.474;2023-04-01T15:01:35;14.00;99.90
42261;DHT22;27926;48.062;7.474;2023-04-01T15:04:15;13.90;99.90
42261;DHT22;27926;48.062;7.474;2023-04-01T15:12:49;13.40;99.90
42261;DHT22;27926;48.062;7.474;2023-04-01T15:15:31;13.10;99.90
42261;DHT22;27926;48.062;7.474;2023-04-01T15:18:18;12.90;99.90
42261;DHT22;27926;48.062;7.474;2023-04-01T15:20:59;12.70;99.90
42261;DHT22;27926;48.062;7.474;2023-04-01T15:27:06;12.40;99.90
42261;DHT22;27926;48.062;7.474;2023-04-01T15:32:49;11.70;99.90
42261;DHT22;27926;48.062;7.474;2023-04-01T15:35:26;11.50;99.90
42261;DHT22;27926;48.062;7.474;2023-04-01T15:40:42;11.20;99.90
42261;DHT22;27926;48.062;7.474;2023-04-01T15:45:49;11.20;99.90
42261;DHT22;27926;48.062;7.474;2023-04-01T15:48:44;11.30;99.90
42261;DHT22;27926;48.062;7.474;2023-04-01T15:59:17;11.70;99.90
42261;DHT22;27926;48.062;7.474;2023-04-01T16:09:55;11.80;99.90
42261;DHT22;27926;48.062;7.474;2023-04-01T16:12:41;11.80;99.90
42261;DHT22;27926;48.062;7.474;2023-04-01T16:20:57;11.90;99.90
42261;DHT22;27926;48.062;7.474;2023-04-01T16:26:36;11.90;99.90
42261;DHT22;27926;48.062;7.474;2023-04-01T16:29:35;11.80;99.90
42261;DHT22;27926;48.062;7.474;2023-04-01T16:32:12;11.60;99.90
42261;DHT22;27926;48.062;7.474;2023-04-01T16:37:34;11.50;99.90
42261;DHT22;27926;48.062;7.474;2023-04-01T16:40:16;11.50;99.90
42261;DHT22;27926;48.062;7.474;2023-04-01T16:48:14;11.60;99.90
42261;DHT22;27926;48.062;7.474;2023-04-01T16:50:58;11.70;99.90
42261;DHT22;27926;48.062;7.474;2023-04-01T16:56:24;12.20;99.90
42261;DHT22;27926;48.062;7.474;2023-04-01T16:59:07;12.50;99.90
42261;DHT22;27926;48.062;7.474;2023-04-01T17:02:02;12.70;99.90
42261;DHT22;27926;48.062;7.474;2023-04-01T17:07:31;12.80;99.90
42261;DHT22;27926;48.062;7.474;2023-04-01T17:15:52;12.40;99.90
42261;DHT22;27926;48.062;7.474;2023-04-01T17:23:52;11.80;99.90
42261;DHT22;27926;48.062;7.474;2023-04-01T17:42:39;10.80;99.90
42261;DHT22;27926;48.062;7.474;2023-04-01T17:59:03;10.30;99.90
42261;DHT22;27926;48.062;7.474;2023-04-01T18:02:04;10.20;99.90
42261;DHT22;27926;48.062;7.474;2023-04-01T18:15:10;9.70;99.90
42261;DHT22;27926;48.062;7.474;2023-04-01T18:17:46;9.60;99.90
42261;DHT22;27926;48.062;7.474;2023-04-01T18:25:45;9.40;99.90
42261;DHT22;27926;48.062;7.474;2023-04-01T18:28:38;9.30;99.90
42261;DHT22;27926;48.062;7.474;2023-04-01T18:36:22;9.20;99.90
42261;DHT22;27926;48.062;7.474;2023-04-01T18:38:53;9.10;99.90
42261;DHT22;27926;48.062;7.474;2023-04-01T18:45:00;9.00;99.90
42261;DHT22;27926;48.062;7.474;2023-04-01T18:47:45;8.90;99.90
42261;DHT22;27926;48.062;7.474;2023-04-01T18:56:30;8.90;99.90
42261;DHT22;27926;48.062;7.474;2023-04-01T18:59:05;8.80;99.90
42261;DHT22;27926;48.062;7.474;2023-04-01T19:01:55;8.80;99.90
42261;DHT22;27926;48.062;7.474;2023-04-01T19:04:30;8.70;99.90
42261;DHT22;27926;48.062;7.474;2023-04-01T19:07:01;8.70;99.90
42261;DHT22;27926;48.062;7.474;2023-04-01T19:09:44;8.70;99.90
42261;DHT22;27926;48.062;7.474;2023-04-01T19:12:31;8.60;99.90
42261;DHT22;27926;48.062;7.474;2023-04-01T19:20:42;8.40;99.90
42261;DHT22;27926;48.062;7.474;2023-04-01T19:26:05;8.30;99.90
42261;DHT22;27926;48.062;7.474;2023-04-01T19:36:52;8.10;99.90
42261;DHT22;27926;48.062;7.474;2023-04-01T19:39:37;8.00;99.90
42261;DHT22;27926;48.062;7.474;2023-04-01T19:42:24;8.00;99.90
42261;DHT22;27926;48.062;7.474;2023-04-01T19:47:44;8.00;99.90
42261;DHT22;27926;48.062;7.474;2023-04-01T19:50:31;7.90;99.90
42261;DHT22;27926;48.062;7.474;2023-04-01T19:52:59;7.90;99.90
42261;DHT22;27926;48.062;7.474;2023-04-01T19:55:50;8.10;99.90
42261;DHT22;27926;48.062;7.474;2023-04-01T20:00:44;8.00;99.90
42261;DHT22;27926;48.062;7.474;2023-04-01T20:03:34;8.00;99.90
42261;DHT22;27926;48.062;7.474;2023-04-01T20:09:23;8.00;99.90
42261;DHT22;27926;48.062;7.474;2023-04-01T20:14:26;8.10;99.90
42261;DHT22;27926;48.062;7.474;2023-04-01T20:17:31;8.20;99.90
42261;DHT22;27926;48.062;7.474;2023-04-01T20:20:23;8.20;99.90
42261;DHT22;27926;48.062;7.474;2023-04-01T20:25:17;8.30;99.90
42261;DHT22;27926;48.062;7.474;2023-04-01T20:36:50;8.40;99.90
42261;DHT22;27926;48.062;7.474;2023-04-01T20:42:03;8.40;99.90
42261;DHT22;27926;48.062;7.474;2023-04-01T20:50:28;8.30;99.90
42261;DHT22;27926;48.062;7.474;2023-04-01T20:56:02;8.40;99.90
42261;DHT22;27926;48.062;7.474;2023-04-01T21:01:54;8.50;99.90
42261;DHT22;27926;48.062;7.474;2023-04-01T21:09:44;8.50;99.90
42261;DHT22;27926;48.062;7.474;2023-04-01T21:15:21;8.60;99.90
42261;DHT22;27926;48.062;7.474;2023-04-01T21:31:44;8.40;99.90
42261;DHT22;27926;48.062;7.474;2023-04-01T21:36:58;8.30;99.90
42261;DHT22;27926;48.062;7.474;2023-04-01T21:42:57;8.30;99.90
42261;DHT22;27926;48.062;7.474;2023-04-01T22:07:19;8.60;99.90
42261;DHT22;27926;48.062;7.474;2023-04-01T22:10:12;8.70;99.90
42261;DHT22;27926;48.062;7.474;2023-04-01T22:12:54;8.60;99.90
42261;DHT22;27926;48.062;7.474;2023-04-01T22:18:06;8.70;99.90
42261;DHT22;27926;48.062;7.474;2023-04-01T22:20:38;8.70;99.90
42261;DHT22;27926;48.062;7.474;2023-04-01T22:28:55;8.60;99.90
42261;DHT22;27926;48.062;7.474;2023-04-01T22:31:47;8.60;99.90
42261;DHT22;27926;48.062;7.474;2023-04-01T22:34:15;8.60;99.90
42261;DHT22;27926;48.062;7.474;2023-04-01T22:42:20;8.60;99.90
42261;DHT22;27926;48.062;7.474;2023-04-01T22:50:05;8.60;99.90
42261;DHT22;27926;48.062;7.474;2023-04-01T22:52:54;8.60;99.90
42261;DHT22;27926;48.062;7.474;2023-04-01T22:55:27;8.60;99.90
42261;DHT22;27926;48.062;7.474;2023-04-01T22:57:58;8.80;99.90
42261;DHT22;27926;48.062;7.474;2023-04-01T23:00:32;8.60;99.90
42261;DHT22;27926;48.062;7.474;2023-04-01T23:03:04;8.60;99.90
42261;DHT22;27926;48.062;7.474;2023-04-01T23:05:30;8.60;99.90
42261;DHT22;27926;48.062;7.474;2023-04-01T23:13:05;8.50;99.90
42261;DHT22;27926;48.062;7.474;2023-04-01T23:15:34;8.50;99.90
42261;DHT22;27926;48.062;7.474;2023-04-01T23:26:07;8.50;99.90
42261;DHT22;27926;48.062;7.474;2023-04-01T23:29:14;8.40;99.90
42261;DHT22;27926;48.062;7.474;2023-04-01T23:32:32;8.40;99.90
42261;DHT22;27926;48.062;7.474;2023-04-01T23:34:35;8.40;99.90
42261;DHT22;27926;48.062;7.474;2023-04-01T23:37:07;8.40;99.90
42261;DHT22;27926;48.062;7.474;2023-04-01T23:39:41;8.40;99.90
42261;DHT22;27926;48.062;7.474;2023-04-01T23:44:39;8.30;99.90
42261;DHT22;27926;48.062;7.474;2023-04-01T23:47:05;8.30;99.90
42261;DHT22;27926;48.062;7.474;2023-04-01T23:49:38;8.30;99.90
42261;DHT22;27926;48.062;7.474;2023-04-01T23:54:51;8.20;99.90
42261;DHT22;27926;48.062;7.474;2023-04-01T23:57:23;8.20;99.90
